This is the latest recevied weather packets stored in our database for station/object N8TWM-13. If no packets are shown the sender has not sent any weather packets the latest 10 day(s).
| Time | Temp. | Humidity | Pressure | Rain* | Wind** | Luminosity | Snow |
|---|---|---|---|---|---|---|---|
| 1777396494 | 19.44° C | 76% | 1012.6 hPa | 0 mm | - | 158 W/m² | - |
| 1777396191 | 20° C | 74% | 1012.7 hPa | 0 mm | - | 138 W/m² | - |
| 1777395887 | 20.56° C | 74% | 1012.7 hPa | 0 mm | - | 243 W/m² | - |
| 1777395582 | 20.56° C | 74% | 1012.5 hPa | 0 mm | - | 809 W/m² | - |
| 1777395279 | 20.56° C | 74% | 1012.5 hPa | 0 mm | - | 750 W/m² | - |
| 1777394977 | 19.44° C | 77% | 1012.5 hPa | 0 mm | - | 295 W/m² | - |
| 1777394673 | 19.44° C | 76% | 1012.6 hPa | 0 mm | - | 216 W/m² | - |
| 1777394369 | 20.56° C | 75% | 1012 hPa | 0 mm | - | 424 W/m² | - |
| 1777394066 | 20° C | 75% | 1012.3 hPa | 0 mm | - | 254 W/m² | - |
| 1777393761 | 20° C | 75% | 1012.5 hPa | 0 mm | - | 399 W/m² | - |
| 1777393461 | 19.44° C | 78% | 1012.4 hPa | 0 mm | - | 805 W/m² | - |
| 1777393157 | 19.44° C | 78% | 1012.7 hPa | 0 mm | - | 862 W/m² | - |
| 1777392854 | 18.89° C | 80% | 1012.5 hPa | 0 mm | - | 655 W/m² | - |
| 1777392549 | 18.89° C | 81% | 1012.7 hPa | 0 mm | - | 232 W/m² | - |
| 1777392245 | 18.33° C | 81% | 1012.9 hPa | 0 mm | - | 693 W/m² | - |
| 1777391940 | 18.33° C | 82% | 1012.8 hPa | 0 mm | - | 287 W/m² | - |
| 1777391636 | 17.78° C | 83% | 1012.8 hPa | 0 mm | - | 226 W/m² | - |
| 1777391332 | 17.78° C | 84% | 1013 hPa | 0 mm | - | 351 W/m² | - |
| 1777391029 | 17.22° C | 86% | 1013 hPa | 0 mm | - | 417 W/m² | - |
| 1777390724 | 16.67° C | 87% | 1013 hPa | 0 mm | - | 388 W/m² | - |
| 1777390422 | 16.67° C | 88% | 1012.8 hPa | 0 mm | - | 342 W/m² | - |
| 1777390118 | 16.67° C | 89% | 1013.1 hPa | 0 mm | - | 354 W/m² | - |
| 1777389814 | 16.11° C | 90% | 1012.8 hPa | 0 mm | - | 379 W/m² | - |
| 1777389512 | 15.56° C | 91% | 1012.8 hPa | 0 mm | - | 317 W/m² | - |
| 1777389208 | 15.56° C | 92% | 1012.5 hPa | 0 mm | - | 341 W/m² | - |
* Rain latest hour (hover to see other rain measurements)
** Current wind speed in m/s (hover to see current wind gust speed)